Time;durP1;ratioP1;P1;durP2;ratioP2;P2;SDS_P1;SDS_P2;PMS_P1;PMS_P2;Temp;Humidity;BMP_temperature;BMP_pressure;BME280_temperature;BME280_humidity;BME280_pressure;Samples;Min_cycle;Max_cycle;Signal;HPM_P1;HPM_P2
2022/07/27 00:01:07;;;;;;;3.88;2.22;;;20.00;99.90;;;;;;5110608;28;20094;-82
2022/07/27 00:03:33;;;;;;;4.00;2.50;;;20.00;99.90;;;;;;5110552;28;20051;-81
2022/07/27 00:05:59;;;;;;;3.47;2.38;;;20.00;99.90;;;;;;5110211;28;20453;-82
2022/07/27 00:08:24;;;;;;;4.57;1.90;;;20.10;99.90;;;;;;5091576;28;20030;-81
2022/07/27 00:10:51;;;;;;;4.57;2.80;;;20.20;99.90;;;;;;5092324;28;20028;-82
2022/07/27 00:13:17;;;;;;;4.57;2.70;;;20.20;99.90;;;;;;5109923;28;20020;-80
2022/07/27 00:15:43;;;;;;;5.93;2.50;;;20.30;99.90;;;;;;5110827;28;20084;-82
2022/07/27 00:18:09;;;;;;;3.17;2.25;;;20.30;99.90;;;;;;5092446;28;20023;-82
2022/07/27 00:20:35;;;;;;;4.72;2.20;;;20.30;99.90;;;;;;5091571;28;20062;-82
2022/07/27 00:23:01;;;;;;;5.10;2.47;;;20.30;99.90;;;;;;5110485;28;20577;-82
2022/07/27 00:25:27;;;;;;;3.40;1.90;;;20.40;99.90;;;;;;5109544;28;20047;-81
2022/07/27 00:27:55;;;;;;;2.65;2.10;;;20.40;99.90;;;;;;5091252;28;20024;-81
2022/07/27 00:30:21;;;;;;;4.45;2.42;;;20.40;99.90;;;;;;5091307;28;20030;-80
2022/07/27 00:32:47;;;;;;;2.53;1.98;;;20.40;99.90;;;;;;5109775;28;20027;-81
2022/07/27 00:35:12;;;;;;;4.70;2.30;;;20.40;99.90;;;;;;5110062;28;20019;-81
2022/07/27 00:37:39;;;;;;;2.38;1.83;;;20.30;99.90;;;;;;5090999;28;20119;-81
2022/07/27 00:40:06;;;;;;;3.38;2.05;;;20.20;99.90;;;;;;5091129;28;20396;-81
2022/07/27 00:42:32;;;;;;;2.60;1.75;;;20.20;99.90;;;;;;5091092;28;20050;-81
2022/07/27 00:44:58;;;;;;;4.88;2.20;;;20.10;99.90;;;;;;5091135;28;20031;-81
2022/07/27 00:47:24;;;;;;;5.97;2.40;;;20.10;99.90;;;;;;5109694;28;20438;-82
2022/07/27 00:49:51;;;;;;;3.83;2.00;;;20.00;99.90;;;;;;5091504;28;20395;-81
2022/07/27 00:52:17;;;;;;;3.67;2.40;;;19.90;99.90;;;;;;5089176;28;20020;-81
2022/07/27 00:54:43;;;;;;;5.05;2.15;;;19.90;99.90;;;;;;5082677;28;20039;-82
2022/07/27 00:57:10;;;;;;;3.50;2.50;;;19.80;99.90;;;;;;5090726;28;20049;-81
2022/07/27 00:59:36;;;;;;;5.88;2.03;;;19.80;99.90;;;;;;5108883;28;20103;-81
2022/07/27 01:02:03;;;;;;;4.20;2.28;;;19.60;99.90;;;;;;5090591;28;20119;-80
2022/07/27 01:04:29;;;;;;;4.32;2.60;;;19.60;99.90;;;;;;5109306;28;20051;-82
2022/07/27 01:06:55;;;;;;;3.63;2.15;;;19.50;99.90;;;;;;5109550;28;20152;-81
2022/07/27 01:12:09;;;;;;;5.65;2.03;;;19.40;99.90;;;;;;5109129;28;20067;-80
2022/07/27 01:14:37;;;;;;;3.38;2.10;;;19.40;99.90;;;;;;5091196;28;20142;-81
2022/07/27 01:17:02;;;;;;;2.70;1.90;;;19.40;99.90;;;;;;5090934;28;20119;-81
2022/07/27 01:19:28;;;;;;;3.55;2.05;;;19.30;99.90;;;;;;5091399;28;20122;-82
2022/07/27 01:21:54;;;;;;;4.55;1.90;;;19.30;99.90;;;;;;5108901;28;20023;-82
2022/07/27 01:24:19;;;;;;;4.78;2.15;;;19.30;99.90;;;;;;5090515;28;20031;-82
2022/07/27 01:26:45;;;;;;;4.10;2.88;;;19.20;99.90;;;;;;5090461;28;20080;-81
2022/07/27 01:29:11;;;;;;;3.92;2.05;;;19.10;99.90;;;;;;5090612;28;20024;-81
2022/07/27 01:31:37;;;;;;;3.95;1.95;;;19.00;99.90;;;;;;5090007;28;20028;-82
2022/07/27 01:34:03;;;;;;;3.38;2.13;;;18.90;99.90;;;;;;5109125;28;20034;-81
2022/07/27 01:36:29;;;;;;;2.88;1.83;;;18.70;99.90;;;;;;5090077;28;20057;-81
2022/07/27 01:38:55;;;;;;;3.42;1.90;;;18.70;99.90;;;;;;5108541;28;20027;-82
2022/07/27 01:41:21;;;;;;;2.90;1.88;;;18.70;99.90;;;;;;5090148;28;20024;-82
2022/07/27 01:43:47;;;;;;;4.47;2.35;;;18.70;99.90;;;;;;5108314;28;20077;-82
2022/07/27 01:46:13;;;;;;;3.65;1.83;;;18.70;99.90;;;;;;5090422;28;20419;-81
2022/07/27 01:48:38;;;;;;;3.17;1.60;;;18.70;99.90;;;;;;5108358;28;20850;-81
2022/07/27 01:51:04;;;;;;;3.40;1.40;;;18.70;99.90;;;;;;5090331;28;20027;-81
2022/07/27 01:53:29;;;;;;;3.70;1.83;;;18.80;99.90;;;;;;5108161;28;20028;-81
2022/07/27 01:55:55;;;;;;;5.80;2.20;;;18.80;99.90;;;;;;5089359;28;20042;-81
2022/07/27 01:58:21;;;;;;;4.38;2.17;;;18.70;99.90;;;;;;5090005;28;20467;-81
2022/07/27 02:00:48;;;;;;;3.60;1.63;;;18.70;99.90;;;;;;5090480;28;20399;-81
2022/07/27 02:03:14;;;;;;;3.55;2.10;;;18.60;99.90;;;;;;5108435;28;20053;-81
2022/07/27 02:05:39;;;;;;;2.92;1.90;;;18.50;99.90;;;;;;5107753;28;20052;-81
2022/07/27 02:08:07;;;;;;;3.60;2.03;;;18.40;99.90;;;;;;5095773;27;20080;-82
2022/07/27 02:10:34;;;;;;;4.65;1.98;;;18.40;99.90;;;;;;5109717;27;20042;-81
2022/07/27 02:12:59;;;;;;;4.63;1.85;;;18.30;99.90;;;;;;5128497;27;20043;-81
2022/07/27 02:15:27;;;;;;;3.63;2.00;;;18.30;99.90;;;;;;5109447;27;20604;-81
2022/07/27 02:17:53;;;;;;;3.22;1.90;;;18.30;99.90;;;;;;5107942;27;20039;-81
2022/07/27 02:20:22;;;;;;;3.55;2.00;;;18.30;99.90;;;;;;5107690;28;20066;-82
2022/07/27 02:22:49;;;;;;;3.47;2.00;;;18.20;99.90;;;;;;5107965;28;20043;-80
2022/07/27 02:25:16;;;;;;;5.53;1.60;;;18.20;99.90;;;;;;5106957;28;20396;-79
2022/07/27 02:27:42;;;;;;;3.35;1.92;;;18.30;99.90;;;;;;5107048;28;20023;-80
2022/07/27 02:30:10;;;;;;;4.72;2.08;;;18.30;99.90;;;;;;5108072;28;20035;-81
2022/07/27 02:32:36;;;;;;;6.15;2.03;;;18.20;99.90;;;;;;5089000;28;20454;-82
2022/07/27 02:35:02;;;;;;;4.25;1.80;;;18.20;99.90;;;;;;5107798;28;20085;-82
2022/07/27 02:37:28;;;;;;;4.00;1.90;;;18.10;99.90;;;;;;5089513;28;20138;-81
2022/07/27 02:39:53;;;;;;;3.45;1.85;;;18.10;99.90;;;;;;5107895;28;20399;-81
2022/07/27 02:42:19;;;;;;;5.15;1.90;;;18.10;99.90;;;;;;5088666;28;20023;-82
2022/07/27 02:44:45;;;;;;;6.85;2.00;;;18.00;99.90;;;;;;5089562;28;20032;-81
2022/07/27 02:47:11;;;;;;;4.50;2.20;;;18.00;99.90;;;;;;5108420;28;20027;-81
2022/07/27 02:49:37;;;;;;;3.70;2.35;;;17.90;99.90;;;;;;5108152;28;20024;-81
2022/07/27 02:52:04;;;;;;;3.78;2.10;;;17.80;99.90;;;;;;5088701;28;20043;-81
2022/07/27 02:54:31;;;;;;;3.67;2.05;;;17.80;99.90;;;;;;5089320;28;20080;-81
2022/07/27 02:56:58;;;;;;;2.97;2.00;;;17.80;99.90;;;;;;5106768;28;20035;-81
2022/07/27 02:59:24;;;;;;;3.13;1.90;;;17.70;99.90;;;;;;5088916;28;20081;-82
2022/07/27 03:01:50;;;;;;;3.17;1.90;;;17.70;99.90;;;;;;5088496;28;20024;-81
2022/07/27 03:04:16;;;;;;;2.55;1.88;;;17.70;99.90;;;;;;5088957;28;20131;-82
2022/07/27 03:06:42;;;;;;;4.95;2.45;;;17.60;99.90;;;;;;5107245;28;20531;-81
2022/07/27 03:09:09;;;;;;;4.28;2.03;;;17.60;99.90;;;;;;5106285;28;20020;-81
2022/07/27 03:11:35;;;;;;;5.03;2.10;;;17.60;99.90;;;;;;5106675;28;20448;-81
2022/07/27 03:14:01;;;;;;;4.43;2.10;;;17.60;99.90;;;;;;5107022;28;20106;-82
2022/07/27 03:16:26;;;;;;;6.47;2.63;;;17.60;99.90;;;;;;5088321;28;20107;-81
2022/07/27 03:18:52;;;;;;;5.05;3.30;;;17.60;99.90;;;;;;5089278;28;20031;-82
2022/07/27 03:21:18;;;;;;;5.88;3.20;;;17.60;99.90;;;;;;5107126;28;20403;-80
2022/07/27 03:23:43;;;;;;;2.90;2.30;;;17.70;99.90;;;;;;5105581;28;20086;-81
2022/07/27 03:26:09;;;;;;;3.53;2.47;;;17.70;99.90;;;;;;5106815;28;20035;-80
2022/07/27 03:28:35;;;;;;;4.57;2.83;;;17.70;99.90;;;;;;5089011;28;20027;-81
2022/07/27 03:31:01;;;;;;;3.50;2.35;;;17.70;99.90;;;;;;5107244;28;20038;-81
2022/07/27 03:33:27;;;;;;;3.65;2.42;;;17.70;99.90;;;;;;5106548;28;20110;-81
2022/07/27 03:35:52;;;;;;;5.40;2.67;;;17.70;99.90;;;;;;5088770;28;20023;-81
2022/07/27 03:38:18;;;;;;;5.75;2.60;;;17.70;99.90;;;;;;5088886;28;20028;-82
2022/07/27 03:40:44;;;;;;;5.13;3.10;;;17.70;99.90;;;;;;5087874;28;20028;-81
2022/07/27 03:43:10;;;;;;;4.80;2.78;;;17.80;99.90;;;;;;5088662;28;20020;-81
2022/07/27 03:45:35;;;;;;;3.83;3.30;;;17.80;99.90;;;;;;5088047;28;20600;-79
2022/07/27 03:48:01;;;;;;;4.60;2.22;;;17.80;99.90;;;;;;5106824;28;20502;-81
2022/07/27 03:50:27;;;;;;;3.63;2.90;;;17.90;99.90;;;;;;5088512;28;20076;-81
2022/07/27 03:52:53;;;;;;;3.53;2.67;;;17.90;99.90;;;;;;5088650;28;20020;-82
2022/07/27 03:55:19;;;;;;;3.45;2.50;;;18.00;99.90;;;;;;5105915;28;20032;-82
2022/07/27 03:57:45;;;;;;;3.55;2.83;;;18.00;99.90;;;;;;5088615;28;20028;-81
2022/07/27 04:00:12;;;;;;;4.82;2.80;;;18.10;99.90;;;;;;5088275;28;20896;-81
2022/07/27 04:02:39;;;;;;;3.00;2.55;;;18.20;99.90;;;;;;5088563;28;20024;-81
2022/07/27 04:05:06;;;;;;;3.95;2.60;;;18.20;99.90;;;;;;5087977;28;20079;-81
2022/07/27 04:07:31;;;;;;;5.82;2.80;;;18.30;99.90;;;;;;5087877;28;20336;-81
2022/07/27 04:09:57;;;;;;;4.32;2.22;;;18.40;99.90;;;;;;5088265;28;20085;-81
2022/07/27 04:12:23;;;;;;;5.10;2.40;;;18.50;99.90;;;;;;5106387;28;20472;-81
2022/07/27 04:14:48;;;;;;;6.32;3.15;;;18.50;99.90;;;;;;5088680;28;20024;-81
2022/07/27 04:17:14;;;;;;;4.32;2.58;;;18.60;99.90;;;;;;5088629;28;20453;-82
2022/07/27 04:19:40;;;;;;;3.13;2.47;;;18.70;99.90;;;;;;5087516;28;20254;-82
2022/07/27 04:22:05;;;;;;;4.70;2.63;;;18.80;99.90;;;;;;5088426;28;20596;-82
2022/07/27 04:24:31;;;;;;;4.53;2.72;;;18.90;99.90;;;;;;5087578;28;20066;-81
2022/07/27 04:26:57;;;;;;;4.50;2.45;;;19.10;99.90;;;;;;5106652;28;20037;-81
2022/07/27 04:29:22;;;;;;;8.38;2.70;;;19.30;99.90;;;;;;5105992;28;20023;-82
2022/07/27 04:31:48;;;;;;;3.08;2.28;;;19.50;99.90;;;;;;5105834;28;20089;-80
2022/07/27 04:34:14;;;;;;;4.32;2.50;;;19.70;99.90;;;;;;5106661;28;20038;-81
2022/07/27 04:36:39;;;;;;;4.20;1.92;;;19.70;99.90;;;;;;5109774;28;20031;-82
2022/07/27 04:39:05;;;;;;;3.28;1.88;;;19.80;99.90;;;;;;5091807;28;20062;-82
2022/07/27 04:41:31;;;;;;;2.47;1.80;;;20.00;99.90;;;;;;5092279;28;20122;-83
2022/07/27 04:43:57;;;;;;;4.72;2.17;;;20.10;99.90;;;;;;5109949;28;20510;-81
2022/07/27 04:46:23;;;;;;;4.03;2.67;;;20.30;99.90;;;;;;5088067;28;20118;-80
2022/07/27 04:48:49;;;;;;;3.70;2.22;;;20.40;99.90;;;;;;5088573;28;20032;-80
2022/07/27 04:51:16;;;;;;;3.30;2.05;;;20.50;99.90;;;;;;5071522;28;20063;-82
2022/07/27 04:53:42;;;;;;;5.40;2.25;;;20.70;99.90;;;;;;5087923;28;20030;-82
2022/07/27 04:56:08;;;;;;;2.78;1.60;;;20.90;99.90;;;;;;5091264;28;20031;-82
2022/07/27 04:58:35;;;;;;;7.88;2.67;;;21.10;99.90;;;;;;5110184;28;20038;-80
2022/07/27 05:01:00;;;;;;;5.70;2.38;;;21.20;99.90;;;;;;5108872;28;20450;-80
2022/07/27 05:03:26;;;;;;;3.83;1.92;;;21.30;99.90;;;;;;5091140;28;20020;-82
2022/07/27 05:05:52;;;;;;;4.07;2.30;;;21.50;99.90;;;;;;5106774;28;20044;-81
2022/07/27 05:08:18;;;;;;;2.80;2.00;;;21.60;99.90;;;;;;5079686;28;20480;-80
2022/07/27 05:10:45;;;;;;;2.92;2.10;;;21.70;99.90;;;;;;5070303;28;20130;-81
2022/07/27 05:13:11;;;;;;;4.43;2.60;;;21.90;99.90;;;;;;5102612;28;20057;-81
2022/07/27 05:15:38;;;;;;;3.40;2.30;;;22.00;99.90;;;;;;5090759;28;20034;-81
2022/07/27 05:18:04;;;;;;;3.95;2.35;;;22.20;99.90;;;;;;5091090;28;20460;-80
2022/07/27 05:20:30;;;;;;;6.10;2.65;;;22.30;99.90;;;;;;5089833;28;20031;-81
2022/07/27 05:22:55;;;;;;;6.28;2.58;;;22.40;99.90;;;;;;5109419;28;20023;-84
2022/07/27 05:25:24;;;;;;;4.05;2.38;;;22.60;99.90;;;;;;5090238;28;20495;-82
2022/07/27 05:27:50;;;;;;;6.55;2.45;;;22.80;99.90;;;;;;5108948;28;20114;-81
2022/07/27 05:30:16;;;;;;;2.67;2.10;;;23.00;99.90;;;;;;5090757;28;20491;-80
2022/07/27 05:32:42;;;;;;;5.45;2.28;;;23.20;99.90;;;;;;5090725;28;20133;-82
2022/07/27 05:35:08;;;;;;;4.10;2.15;;;23.40;99.90;;;;;;5108598;28;20080;-80
2022/07/27 05:37:33;;;;;;;4.57;2.17;;;23.70;99.90;;;;;;5108442;28;20027;-82
2022/07/27 05:39:59;;;;;;;5.07;2.15;;;23.80;99.90;;;;;;5089756;28;20031;-81
2022/07/27 05:42:24;;;;;;;2.72;1.73;;;23.90;99.90;;;;;;5090399;28;20026;-82
2022/07/27 05:44:54;;;;;;;2.88;2.25;;;23.90;99.90;;;;;;5108168;28;20503;-80
2022/07/27 05:47:20;;;;;;;5.18;1.95;;;23.90;99.90;;;;;;5107631;28;20095;-82
2022/07/27 05:49:45;;;;;;;5.18;2.05;;;24.00;99.80;;;;;;5108397;28;20042;-82
2022/07/27 05:52:11;;;;;;;4.18;2.55;;;24.10;99.60;;;;;;5088345;28;20036;-83
2022/07/27 05:54:37;;;;;;;3.95;2.35;;;24.40;99.10;;;;;;5083152;28;20434;-81
2022/07/27 05:57:02;;;;;;;5.97;2.25;;;24.80;98.30;;;;;;5105631;28;20019;-83
2022/07/27 05:59:30;;;;;;;5.53;2.05;;;25.60;96.70;;;;;;5107263;28;20028;-82
2022/07/27 06:01:56;;;;;;;3.40;1.80;;;26.40;95.10;;;;;;5090255;28;20089;-82
2022/07/27 06:04:22;;;;;;;3.17;1.98;;;27.00;93.80;;;;;;5107326;28;20061;-82
2022/07/27 06:09:32;;;;;;;5.80;1.83;;;28.10;90.20;;;;;;5108184;28;20043;-82
2022/07/27 06:11:57;;;;;;;3.35;1.80;;;28.80;83.30;;;;;;5088291;28;20012;-80
2022/07/27 06:14:23;;;;;;;3.55;1.38;;;29.10;78.70;;;;;;5107473;28;20032;-80
2022/07/27 06:16:49;;;;;;;4.10;1.38;;;29.40;76.10;;;;;;5108017;28;20102;-81
2022/07/27 06:19:14;;;;;;;2.65;1.52;;;30.30;72.30;;;;;;5108057;28;20051;-80
2022/07/27 06:21:40;;;;;;;6.20;1.45;;;31.40;66.80;;;;;;5106694;28;20445;-81
2022/07/27 06:24:06;;;;;;;5.28;1.38;;;32.70;61.40;;;;;;5088344;28;20411;-80
2022/07/27 06:26:32;;;;;;;2.75;1.55;;;33.70;55.80;;;;;;5089503;28;20084;-80
2022/07/27 06:28:59;;;;;;;3.40;1.55;;;34.00;51.90;;;;;;5107477;28;20024;-79
2022/07/27 06:31:27;;;;;;;3.00;1.60;;;34.50;49.50;;;;;;5088477;28;20102;-80
2022/07/27 06:33:55;;;;;;;4.10;1.17;;;35.00;47.10;;;;;;5098613;28;20031;-81
2022/07/27 06:36:21;;;;;;;4.70;1.60;;;35.50;44.10;;;;;;5068753;28;20028;-80
2022/07/27 06:38:48;;;;;;;5.25;1.17;;;35.80;44.40;;;;;;5087128;28;20138;-81
2022/07/27 06:41:14;;;;;;;5.07;1.73;;;36.20;43.80;;;;;;5083200;28;20388;-81
2022/07/27 06:43:39;;;;;;;2.63;1.30;;;36.50;41.90;;;;;;5107233;28;20088;-80
2022/07/27 06:46:06;;;;;;;2.40;1.45;;;36.60;41.20;;;;;;5106787;28;20089;-80
2022/07/27 06:48:32;;;;;;;6.45;1.70;;;36.60;41.70;;;;;;5088900;28;20435;-79
2022/07/27 06:50:58;;;;;;;2.88;1.50;;;36.40;41.30;;;;;;5107600;28;20107;-80
2022/07/27 06:53:24;;;;;;;8.43;1.60;;;36.30;41.20;;;;;;5085467;28;20122;-80
2022/07/27 06:55:50;;;;;;;8.45;1.60;;;36.10;39.90;;;;;;5081554;28;20494;-79
2022/07/27 06:58:15;;;;;;;2.13;1.38;;;36.20;39.40;;;;;;5087520;28;20575;-80
2022/07/27 07:00:41;;;;;;;8.63;1.40;;;36.40;38.90;;;;;;5088890;28;20020;-80
2022/07/27 07:03:07;;;;;;;4.10;1.45;;;36.60;37.80;;;;;;5088705;28;20400;-81
2022/07/27 07:05:39;;;;;;;4.00;1.40;;;36.70;36.70;;;;;;5088482;28;20047;-81
2022/07/27 07:08:10;;;;;;;4.47;1.92;;;36.70;37.40;;;;;;5088483;28;20033;-80
2022/07/27 07:10:36;;;;;;;5.90;1.88;;;36.80;37.80;;;;;;5088576;28;20523;-79
2022/07/27 07:13:03;;;;;;;7.25;2.80;;;36.90;38.50;;;;;;5088595;28;20423;-78
2022/07/27 07:15:29;;;;;;;6.45;1.95;;;37.10;37.80;;;;;;5088202;28;20110;-79
2022/07/27 07:17:55;;;;;;;4.40;1.33;;;37.10;38.00;;;;;;5107117;28;20118;-79
2022/07/27 07:20:21;;;;;;;5.18;1.80;;;36.80;38.20;;;;;;5106424;28;20098;-80
2022/07/27 07:22:47;;;;;;;4.88;1.92;;;36.70;37.70;;;;;;5087560;28;20494;-80
2022/07/27 07:25:13;;;;;;;3.60;1.77;;;36.80;38.40;;;;;;5079968;28;20035;-80
2022/07/27 07:27:38;;;;;;;5.07;1.65;;;36.50;38.90;;;;;;5087948;28;20028;-78
2022/07/27 07:30:05;;;;;;;3.65;1.77;;;36.30;39.20;;;;;;5094030;28;20035;-80
2022/07/27 07:32:30;;;;;;;5.22;1.73;;;36.10;39.10;;;;;;5106860;28;20027;-80
2022/07/27 07:34:56;;;;;;;10.23;1.90;;;36.00;39.80;;;;;;5106283;28;20683;-79
2022/07/27 07:37:22;;;;;;;3.40;1.55;;;36.10;39.40;;;;;;5105831;28;20300;-79
2022/07/27 07:39:47;;;;;;;2.95;1.40;;;36.40;37.80;;;;;;5106418;28;20024;-80
2022/07/27 07:42:13;;;;;;;2.55;1.30;;;36.50;38.20;;;;;;5106791;28;20035;-80
2022/07/27 07:44:39;;;;;;;8.50;1.50;;;36.40;38.10;;;;;;5106138;28;20035;-80
2022/07/27 07:47:05;;;;;;;3.35;2.05;;;36.50;36.90;;;;;;5106035;28;20032;-80
2022/07/27 07:49:30;;;;;;;3.75;1.50;;;36.10;36.90;;;;;;5088032;28;20035;-80
2022/07/27 07:51:56;;;;;;;6.05;1.80;;;35.90;38.20;;;;;;5105797;28;20027;-78
2022/07/27 07:54:22;;;;;;;4.75;1.52;;;36.10;38.30;;;;;;5106330;28;20024;-78
2022/07/27 07:56:47;;;;;;;3.88;1.23;;;36.30;37.20;;;;;;5106338;28;20039;-80
2022/07/27 07:59:13;;;;;;;4.38;1.88;;;36.30;37.00;;;;;;5107414;28;20051;-80
2022/07/27 08:01:39;;;;;;;5.78;1.50;;;36.70;36.40;;;;;;5117146;27;20040;-78
2022/07/27 08:04:05;;;;;;;2.83;1.42;;;36.90;35.30;;;;;;5107608;28;20182;-79
2022/07/27 08:06:31;;;;;;;3.05;1.63;;;36.80;35.50;;;;;;5106592;28;20373;-79
2022/07/27 08:08:57;;;;;;;9.55;1.63;;;36.40;35.50;;;;;;5114000;27;20066;-79
2022/07/27 08:11:23;;;;;;;3.47;1.38;;;36.60;36.60;;;;;;5114108;27;20075;-78
2022/07/27 08:13:49;;;;;;;3.70;1.40;;;36.80;36.00;;;;;;5088152;28;20043;-79
2022/07/27 08:16:15;;;;;;;4.47;1.60;;;37.30;34.60;;;;;;5113877;27;20047;-79
2022/07/27 08:18:41;;;;;;;3.25;1.42;;;37.50;34.70;;;;;;5112552;27;20055;-79
2022/07/27 08:21:07;;;;;;;7.47;1.02;;;37.70;34.10;;;;;;5091774;28;20044;-78
2022/07/27 08:23:33;;;;;;;7.97;1.33;;;37.70;33.60;;;;;;5115874;27;20058;-79
2022/07/27 08:25:59;;;;;;;3.53;1.20;;;37.50;32.40;;;;;;5094075;27;20032;-79
2022/07/27 08:28:24;;;;;;;2.78;1.23;;;37.80;33.20;;;;;;5110750;27;20038;-79
2022/07/27 08:30:50;;;;;;;3.90;1.05;;;37.50;33.00;;;;;;5109287;28;20028;-79
2022/07/27 08:33:16;;;;;;;6.35;1.25;;;37.30;32.70;;;;;;5092347;27;20134;-78
2022/07/27 08:35:42;;;;;;;4.68;1.10;;;37.50;32.90;;;;;;5112598;27;20043;-79
2022/07/27 08:38:08;;;;;;;4.07;1.10;;;37.60;33.10;;;;;;5088788;27;20035;-79
2022/07/27 08:40:35;;;;;;;5.00;1.40;;;37.80;32.80;;;;;;5110584;27;20024;-78
2022/07/27 08:43:02;;;;;;;4.22;1.23;;;37.70;33.70;;;;;;5123160;27;20054;-79
2022/07/27 08:45:28;;;;;;;4.22;1.30;;;37.50;32.60;;;;;;5090295;28;20035;-77
2022/07/27 08:47:54;;;;;;;1.67;1.00;;;37.60;32.50;;;;;;5114539;27;20031;-78
2022/07/27 08:50:23;;;;;;;3.33;1.40;;;37.60;32.70;;;;;;5092403;28;20027;-78
2022/07/27 08:53:08;;;;;;;2.90;1.10;;;37.80;32.50;;;;;;5090198;28;20042;-79
2022/07/27 08:55:36;;;;;;;4.03;1.17;;;38.00;32.50;;;;;;5109147;27;20059;-78
2022/07/27 08:58:03;;;;;;;9.98;1.27;;;38.10;32.00;;;;;;5115261;27;20344;-78
2022/07/27 09:00:29;;;;;;;4.05;1.13;;;37.90;31.90;;;;;;5115739;27;20047;-78
2022/07/27 09:02:55;;;;;;;5.65;1.13;;;37.80;31.80;;;;;;5092737;27;20226;-79
2022/07/27 09:05:21;;;;;;;4.55;1.50;;;37.70;31.70;;;;;;5087983;28;20047;-78
2022/07/27 09:07:47;;;;;;;7.20;1.75;;;38.00;31.20;;;;;;5110256;27;20093;-79
2022/07/27 09:10:34;;;;;;;2.88;1.27;;;37.90;30.00;;;;;;5085951;28;20118;-79
2022/07/27 09:13:29;;;;;;;2.38;1.27;;;37.60;31.40;;;;;;5108162;27;20411;-78
2022/07/27 09:15:58;;;;;;;6.45;1.60;;;37.40;30.80;;;;;;5110001;27;20123;-78
2022/07/27 09:18:25;;;;;;;3.40;1.27;;;37.30;31.60;;;;;;5091416;27;20047;-78
2022/07/27 09:21:13;;;;;;;5.90;1.17;;;37.10;32.10;;;;;;5115035;27;20040;-79
2022/07/27 09:23:40;;;;;;;2.17;1.10;;;37.00;32.10;;;;;;5112317;27;20703;-78
2022/07/27 09:26:19;;;;;;;9.18;1.10;;;37.30;32.30;;;;;;5119227;27;20035;-79
2022/07/27 09:28:46;;;;;;;4.78;1.20;;;37.40;32.00;;;;;;5091998;28;20042;-78
2022/07/27 09:31:14;;;;;;;5.43;1.42;;;37.60;31.80;;;;;;5089629;28;20721;-78
2022/07/27 09:33:48;;;;;;;3.47;1.23;;;37.80;31.30;;;;;;5114149;27;20066;-78
2022/07/27 09:36:14;;;;;;;8.02;1.63;;;37.90;30.20;;;;;;5084592;28;20051;-79
2022/07/27 09:39:07;;;;;;;4.15;1.45;;;38.00;30.10;;;;;;5081373;27;20040;-79
2022/07/27 09:42:13;;;;;;;2.35;1.38;;;36.90;30.90;;;;;;5073480;28;20051;-78
2022/07/27 09:44:41;;;;;;;7.68;1.30;;;36.70;32.20;;;;;;5069344;27;20043;-78
2022/07/27 09:47:19;;;;;;;3.35;1.15;;;36.90;32.20;;;;;;5109860;27;20096;-78
2022/07/27 09:49:45;;;;;;;4.15;1.17;;;37.20;31.10;;;;;;5088095;27;20122;-78
2022/07/27 09:52:22;;;;;;;5.18;1.27;;;37.20;31.20;;;;;;5116228;27;20106;-78
2022/07/27 09:54:48;;;;;;;2.25;1.00;;;37.40;31.60;;;;;;5112247;27;20101;-78
2022/07/27 09:57:14;;;;;;;6.80;1.38;;;37.50;30.70;;;;;;5109473;27;20973;-78
2022/07/27 09:59:39;;;;;;;4.60;2.15;;;37.40;31.80;;;;;;5110173;27;20504;-77
2022/07/27 10:02:05;;;;;;;5.40;1.40;;;37.60;31.50;;;;;;5113720;27;20035;-78
2022/07/27 10:04:34;;;;;;;4.95;1.42;;;38.00;30.90;;;;;;5089138;28;20044;-79
2022/07/27 10:07:00;;;;;;;6.80;1.63;;;38.10;30.90;;;;;;5088765;28;20043;-79
2022/07/27 10:09:29;;;;;;;3.30;1.30;;;38.20;30.70;;;;;;5109275;27;20036;-78
2022/07/27 10:11:56;;;;;;;3.67;1.02;;;38.10;30.00;;;;;;5092786;27;20031;-78
2022/07/27 10:14:21;;;;;;;6.15;1.35;;;37.50;30.20;;;;;;5106237;28;20032;-80
2022/07/27 10:16:48;;;;;;;6.45;1.10;;;36.80;31.10;;;;;;5106781;27;20139;-78
2022/07/27 10:19:40;;;;;;;5.65;1.38;;;35.90;32.50;;;;;;5114825;27;20113;-77
2022/07/27 10:22:06;;;;;;;7.72;1.48;;;35.40;33.80;;;;;;5113134;27;20035;-77
2022/07/27 10:24:36;;;;;;;3.33;1.30;;;35.10;34.20;;;;;;5109711;27;20055;-79
2022/07/27 10:27:30;;;;;;;3.10;1.17;;;35.00;34.70;;;;;;5116006;27;20028;-79
2022/07/27 10:29:56;;;;;;;4.30;1.45;;;34.90;35.30;;;;;;5089279;28;20035;-78
2022/07/27 10:32:29;;;;;;;3.47;1.05;;;34.80;35.50;;;;;;5105961;28;20027;-77
2022/07/27 10:34:56;;;;;;;2.83;1.30;;;34.60;35.30;;;;;;5089544;28;20024;-79
2022/07/27 10:37:27;;;;;;;3.25;1.25;;;34.40;34.90;;;;;;5106754;28;20023;-78
2022/07/27 10:42:43;;;;;;;5.72;1.23;;;33.90;36.40;;;;;;5108280;28;20396;-79
2022/07/27 10:45:10;;;;;;;6.03;1.40;;;33.80;34.80;;;;;;5106486;28;20699;-79
2022/07/27 10:47:36;;;;;;;3.88;1.45;;;33.20;35.50;;;;;;5107149;28;20256;-78
2022/07/27 10:50:18;;;;;;;3.58;1.10;;;32.80;36.60;;;;;;5106282;28;20042;-77
2022/07/27 10:53:05;;;;;;;4.93;1.20;;;32.80;36.80;;;;;;5104424;28;20028;-79
2022/07/27 10:55:36;;;;;;;5.90;1.67;;;32.70;37.20;;;;;;5088746;28;20385;-79
2022/07/27 10:58:08;;;;;;;6.18;1.23;;;32.70;36.90;;;;;;5107532;28;20469;-78
2022/07/27 11:00:49;;;;;;;5.35;1.50;;;32.70;37.50;;;;;;5088594;28;20053;-79
2022/07/27 11:03:21;;;;;;;8.35;1.50;;;32.70;37.20;;;;;;5089200;28;20481;-78
2022/07/27 11:06:03;;;;;;;10.35;1.38;;;32.70;37.70;;;;;;5106428;28;20094;-79
2022/07/27 11:08:33;;;;;;;2.25;1.25;;;32.80;37.70;;;;;;5088431;28;20117;-78
2022/07/27 11:11:00;;;;;;;6.32;1.23;;;32.70;37.40;;;;;;5106933;28;20541;-80
2022/07/27 11:13:27;;;;;;;3.15;1.00;;;32.60;37.50;;;;;;5086872;28;20649;-78
2022/07/27 11:15:58;;;;;;;2.75;1.00;;;32.50;37.90;;;;;;5086077;28;20020;-78
2022/07/27 11:18:35;;;;;;;2.70;1.08;;;32.60;38.40;;;;;;5068203;28;20077;-79
2022/07/27 11:21:22;;;;;;;1.83;0.95;;;32.70;38.30;;;;;;5081590;28;20118;-80
2022/07/27 11:23:52;;;;;;;4.45;0.98;;;33.00;37.40;;;;;;5074360;28;20210;-79
2022/07/27 11:26:20;;;;;;;5.93;1.30;;;33.10;37.10;;;;;;5095244;28;20543;-78
2022/07/27 11:28:45;;;;;;;2.10;1.08;;;33.00;36.70;;;;;;5106586;28;20505;-80
2022/07/27 11:31:12;;;;;;;3.15;1.33;;;32.90;37.20;;;;;;5105723;28;20073;-80
2022/07/27 11:33:59;;;;;;;4.47;1.13;;;32.90;37.00;;;;;;5103460;28;20032;-80
2022/07/27 11:36:45;;;;;;;2.65;1.20;;;32.70;36.40;;;;;;5094184;28;20400;-79
2022/07/27 11:39:17;;;;;;;8.90;1.48;;;32.40;36.50;;;;;;5087595;28;20055;-78
2022/07/27 11:41:44;;;;;;;4.55;1.40;;;32.10;37.60;;;;;;5081837;28;20027;-79
2022/07/27 11:44:15;;;;;;;3.20;1.58;;;32.00;37.40;;;;;;5074781;28;20020;-79
2022/07/27 11:46:43;;;;;;;2.67;1.00;;;31.80;38.00;;;;;;5111408;28;20130;-79
2022/07/27 11:49:14;;;;;;;3.67;1.17;;;31.80;38.40;;;;;;5110817;28;20024;-80
2022/07/27 11:51:45;;;;;;;4.80;0.93;;;31.80;38.70;;;;;;5110191;28;20385;-78
2022/07/27 11:54:43;;;;;;;4.65;1.10;;;31.70;38.70;;;;;;5112468;27;20032;-79
2022/07/27 11:57:15;;;;;;;4.40;1.35;;;31.70;38.60;;;;;;5088621;28;20031;-79
2022/07/27 11:59:43;;;;;;;1.55;0.90;;;31.70;38.40;;;;;;5109204;28;20106;-80
2022/07/27 12:02:18;;;;;;;2.72;1.25;;;31.70;38.10;;;;;;5106573;28;20513;-77
2022/07/27 12:04:47;;;;;;;1.77;0.98;;;31.90;38.20;;;;;;5108347;28;20047;-79
2022/07/27 12:07:43;;;;;;;6.45;1.73;;;32.00;37.50;;;;;;5090739;28;20031;-79
2022/07/27 12:10:09;;;;;;;5.57;1.35;;;32.10;37.10;;;;;;5076878;28;20028;-78
2022/07/27 12:12:36;;;;;;;1.60;1.02;;;32.00;36.70;;;;;;5109361;28;20565;-80
2022/07/27 12:15:16;;;;;;;1.70;1.23;;;32.00;36.70;;;;;;5109353;28;20023;-79
2022/07/27 12:17:42;;;;;;;3.42;1.00;;;31.80;37.30;;;;;;5090648;28;20031;-81
2022/07/27 12:20:17;;;;;;;3.50;1.00;;;31.70;36.20;;;;;;5090913;28;20099;-81
2022/07/27 12:22:49;;;;;;;5.82;1.05;;;31.70;36.20;;;;;;5090366;28;20041;-82
2022/07/27 12:25:17;;;;;;;2.40;0.95;;;31.60;36.20;;;;;;5084144;28;20031;-82
2022/07/27 12:28:03;;;;;;;3.35;1.02;;;31.50;36.30;;;;;;5104270;28;20579;-81
2022/07/27 12:30:28;;;;;;;2.88;0.95;;;31.40;36.20;;;;;;5109866;28;20027;-82
2022/07/27 12:32:54;;;;;;;4.03;1.00;;;31.20;36.60;;;;;;5103048;28;20038;-81
2022/07/27 12:35:26;;;;;;;1.20;0.77;;;31.10;36.60;;;;;;5080809;28;20036;-81
2022/07/27 12:38:01;;;;;;;2.45;1.10;;;31.30;37.60;;;;;;5083072;28;20046;-81
2022/07/27 12:40:28;;;;;;;5.53;1.05;;;31.60;37.50;;;;;;5106174;28;20035;-80
2022/07/27 12:43:02;;;;;;;2.97;1.40;;;31.90;37.00;;;;;;5091958;28;20195;-81
2022/07/27 12:45:31;;;;;;;5.75;1.25;;;32.20;35.90;;;;;;5094495;28;20134;-81
2022/07/27 12:48:08;;;;;;;7.18;1.42;;;32.30;35.30;;;;;;5091043;28;20407;-81
2022/07/27 12:50:35;;;;;;;3.17;1.08;;;32.40;35.60;;;;;;5109320;28;20027;-81
2022/07/27 12:53:00;;;;;;;2.22;1.05;;;32.40;35.00;;;;;;5105684;28;20055;-82
2022/07/27 12:55:26;;;;;;;3.50;1.20;;;32.30;34.80;;;;;;5109925;28;20062;-81
2022/07/27 12:57:54;;;;;;;2.13;1.00;;;32.10;35.20;;;;;;5090637;28;20065;-81
2022/07/27 13:00:23;;;;;;;3.33;1.00;;;32.10;34.60;;;;;;5090848;28;20566;-82